sensor_id;sensor_type;location;lat;lon;timestamp;temperature;humidity
23713;DHT22;12035;49.978;8.298;2022-10-16T00:04:13;18.70;75.80
23713;DHT22;12035;49.978;8.298;2022-10-16T00:09:13;18.70;75.70
23713;DHT22;12035;49.978;8.298;2022-10-16T00:14:12;18.80;75.80
23713;DHT22;12035;49.978;8.298;2022-10-16T00:19:11;18.80;75.80
23713;DHT22;12035;49.978;8.298;2022-10-16T00:24:09;18.80;75.80
23713;DHT22;12035;49.978;8.298;2022-10-16T00:29:09;18.90;75.90
23713;DHT22;12035;49.978;8.298;2022-10-16T00:34:06;18.80;75.90
23713;DHT22;12035;49.978;8.298;2022-10-16T00:39:04;18.80;75.80
23713;DHT22;12035;49.978;8.298;2022-10-16T00:49:35;19.00;76.40
23713;DHT22;12035;49.978;8.298;2022-10-16T00:54:32;18.80;76.30
23713;DHT22;12035;49.978;8.298;2022-10-16T00:59:33;18.80;76.60
23713;DHT22;12035;49.978;8.298;2022-10-16T01:04:35;18.80;76.80
23713;DHT22;12035;49.978;8.298;2022-10-16T01:09:37;18.80;77.10
23713;DHT22;12035;49.978;8.298;2022-10-16T01:14:51;18.80;77.30
23713;DHT22;12035;49.978;8.298;2022-10-16T01:20:00;18.80;77.40
23713;DHT22;12035;49.978;8.298;2022-10-16T01:25:06;18.80;77.40
23713;DHT22;12035;49.978;8.298;2022-10-16T01:30:12;18.80;77.30
23713;DHT22;12035;49.978;8.298;2022-10-16T01:35:14;18.80;77.20
23713;DHT22;12035;49.978;8.298;2022-10-16T01:40:19;18.80;77.10
23713;DHT22;12035;49.978;8.298;2022-10-16T01:45:19;18.80;77.30
23713;DHT22;12035;49.978;8.298;2022-10-16T01:50:18;18.60;77.10
23713;DHT22;12035;49.978;8.298;2022-10-16T01:55:22;18.80;77.30
23713;DHT22;12035;49.978;8.298;2022-10-16T02:00:23;18.80;77.40
23713;DHT22;12035;49.978;8.298;2022-10-16T02:05:25;18.70;77.50
23713;DHT22;12035;49.978;8.298;2022-10-16T02:10:24;18.80;77.40
23713;DHT22;12035;49.978;8.298;2022-10-16T02:15:27;18.80;77.40
23713;DHT22;12035;49.978;8.298;2022-10-16T02:20:29;18.80;77.30
23713;DHT22;12035;49.978;8.298;2022-10-16T02:25:35;18.80;77.30
23713;DHT22;12035;49.978;8.298;2022-10-16T02:30:40;18.80;77.30
23713;DHT22;12035;49.978;8.298;2022-10-16T02:35:40;18.80;77.40
23713;DHT22;12035;49.978;8.298;2022-10-16T02:40:39;18.90;77.30
23713;DHT22;12035;49.978;8.298;2022-10-16T02:45:39;18.90;77.20
23713;DHT22;12035;49.978;8.298;2022-10-16T02:50:37;18.90;77.00
23713;DHT22;12035;49.978;8.298;2022-10-16T02:55:34;19.00;76.80
23713;DHT22;12035;49.978;8.298;2022-10-16T03:00:33;19.00;76.70
23713;DHT22;12035;49.978;8.298;2022-10-16T03:05:32;18.90;76.50
23713;DHT22;12035;49.978;8.298;2022-10-16T03:10:30;18.90;76.50
23713;DHT22;12035;49.978;8.298;2022-10-16T03:15:27;18.90;76.60
23713;DHT22;12035;49.978;8.298;2022-10-16T03:20:25;18.80;76.50
23713;DHT22;12035;49.978;8.298;2022-10-16T03:25:24;18.80;76.50
23713;DHT22;12035;49.978;8.298;2022-10-16T03:30:22;18.80;76.50
23713;DHT22;12035;49.978;8.298;2022-10-16T03:35:20;18.80;76.50
23713;DHT22;12035;49.978;8.298;2022-10-16T03:40:17;18.80;76.50
23713;DHT22;12035;49.978;8.298;2022-10-16T03:45:16;18.80;76.50
23713;DHT22;12035;49.978;8.298;2022-10-16T03:50:14;18.80;76.50
23713;DHT22;12035;49.978;8.298;2022-10-16T03:55:11;18.80;76.50
23713;DHT22;12035;49.978;8.298;2022-10-16T04:00:10;18.90;76.50
23713;DHT22;12035;49.978;8.298;2022-10-16T04:05:10;18.80;76.30
23713;DHT22;12035;49.978;8.298;2022-10-16T04:10:08;18.90;76.30
23713;DHT22;12035;49.978;8.298;2022-10-16T04:15:07;18.80;76.00
23713;DHT22;12035;49.978;8.298;2022-10-16T04:20:10;18.80;75.80
23713;DHT22;12035;49.978;8.298;2022-10-16T04:25:08;18.80;75.60
23713;DHT22;12035;49.978;8.298;2022-10-16T04:30:07;18.80;75.60
23713;DHT22;12035;49.978;8.298;2022-10-16T04:35:05;18.80;75.50
23713;DHT22;12035;49.978;8.298;2022-10-16T04:40:07;18.70;75.50
23713;DHT22;12035;49.978;8.298;2022-10-16T04:45:06;18.70;75.30
23713;DHT22;12035;49.978;8.298;2022-10-16T04:50:05;18.70;75.30
23713;DHT22;12035;49.978;8.298;2022-10-16T04:55:06;18.70;75.40
23713;DHT22;12035;49.978;8.298;2022-10-16T05:00:04;18.80;75.50
23713;DHT22;12035;49.978;8.298;2022-10-16T05:05:04;18.70;75.50
23713;DHT22;12035;49.978;8.298;2022-10-16T05:10:02;18.80;75.40
23713;DHT22;12035;49.978;8.298;2022-10-16T05:15:02;18.80;75.50
23713;DHT22;12035;49.978;8.298;2022-10-16T05:20:01;18.80;75.50
23713;DHT22;12035;49.978;8.298;2022-10-16T05:24:58;18.80;75.30
23713;DHT22;12035;49.978;8.298;2022-10-16T05:29:57;18.80;75.30
23713;DHT22;12035;49.978;8.298;2022-10-16T05:34:55;18.80;75.10
23713;DHT22;12035;49.978;8.298;2022-10-16T05:39:54;18.80;75.10
23713;DHT22;12035;49.978;8.298;2022-10-16T05:44:52;18.80;75.10
23713;DHT22;12035;49.978;8.298;2022-10-16T05:49:51;18.80;75.20
23713;DHT22;12035;49.978;8.298;2022-10-16T05:54:49;18.80;75.30
23713;DHT22;12035;49.978;8.298;2022-10-16T05:59:49;18.80;75.30
23713;DHT22;12035;49.978;8.298;2022-10-16T06:04:46;18.80;75.30
23713;DHT22;12035;49.978;8.298;2022-10-16T06:09:49;18.80;75.40
23713;DHT22;12035;49.978;8.298;2022-10-16T06:14:49;18.80;75.40
23713;DHT22;12035;49.978;8.298;2022-10-16T06:19:46;18.90;75.50
23713;DHT22;12035;49.978;8.298;2022-10-16T06:24:45;18.70;75.30
23713;DHT22;12035;49.978;8.298;2022-10-16T06:35:18;18.80;75.50
23713;DHT22;12035;49.978;8.298;2022-10-16T06:40:21;18.80;75.40
23713;DHT22;12035;49.978;8.298;2022-10-16T06:45:23;18.80;75.40
23713;DHT22;12035;49.978;8.298;2022-10-16T06:50:22;18.80;76.20
23713;DHT22;12035;49.978;8.298;2022-10-16T06:55:20;18.80;75.50
23713;DHT22;12035;49.978;8.298;2022-10-16T07:00:19;18.80;75.60
23713;DHT22;12035;49.978;8.298;2022-10-16T07:05:19;18.90;75.60
23713;DHT22;12035;49.978;8.298;2022-10-16T07:10:16;18.90;75.80
23713;DHT22;12035;49.978;8.298;2022-10-16T07:15:21;18.90;75.80
23713;DHT22;12035;49.978;8.298;2022-10-16T07:20:19;18.90;75.80
23713;DHT22;12035;49.978;8.298;2022-10-16T07:25:22;19.00;75.80
23713;DHT22;12035;49.978;8.298;2022-10-16T07:30:21;19.00;76.00
23713;DHT22;12035;49.978;8.298;2022-10-16T07:35:22;19.00;76.00
23713;DHT22;12035;49.978;8.298;2022-10-16T07:40:19;19.00;76.10
23713;DHT22;12035;49.978;8.298;2022-10-16T07:45:17;19.00;76.30
23713;DHT22;12035;49.978;8.298;2022-10-16T07:50:16;19.10;76.50
23713;DHT22;12035;49.978;8.298;2022-10-16T07:55:17;19.10;76.60
23713;DHT22;12035;49.978;8.298;2022-10-16T08:00:20;19.10;76.50
23713;DHT22;12035;49.978;8.298;2022-10-16T08:05:20;19.20;76.70
23713;DHT22;12035;49.978;8.298;2022-10-16T08:10:21;19.20;76.70
23713;DHT22;12035;49.978;8.298;2022-10-16T08:15:20;19.30;76.70
23713;DHT22;12035;49.978;8.298;2022-10-16T08:20:19;19.30;76.60
23713;DHT22;12035;49.978;8.298;2022-10-16T08:25:17;19.30;76.70
23713;DHT22;12035;49.978;8.298;2022-10-16T08:30:16;19.30;76.50
23713;DHT22;12035;49.978;8.298;2022-10-16T08:35:16;19.40;76.70
23713;DHT22;12035;49.978;8.298;2022-10-16T08:40:19;19.40;76.70
23713;DHT22;12035;49.978;8.298;2022-10-16T08:45:33;19.40;76.90
23713;DHT22;12035;49.978;8.298;2022-10-16T08:50:39;19.50;76.80
23713;DHT22;12035;49.978;8.298;2022-10-16T08:55:50;19.50;76.50
23713;DHT22;12035;49.978;8.298;2022-10-16T09:00:51;19.60;76.50
23713;DHT22;12035;49.978;8.298;2022-10-16T09:06:04;19.60;76.20
23713;DHT22;12035;49.978;8.298;2022-10-16T09:11:14;19.70;75.90
23713;DHT22;12035;49.978;8.298;2022-10-16T09:16:33;19.70;75.90
23713;DHT22;12035;49.978;8.298;2022-10-16T09:21:39;19.70;76.00
23713;DHT22;12035;49.978;8.298;2022-10-16T09:26:52;19.70;76.50
23713;DHT22;12035;49.978;8.298;2022-10-16T09:31:52;19.70;76.70
23713;DHT22;12035;49.978;8.298;2022-10-16T09:36:50;19.70;77.50
23713;DHT22;12035;49.978;8.298;2022-10-16T09:41:52;19.90;77.70
23713;DHT22;12035;49.978;8.298;2022-10-16T09:47:01;19.90;77.50
23713;DHT22;12035;49.978;8.298;2022-10-16T09:52:04;19.90;77.20
23713;DHT22;12035;49.978;8.298;2022-10-16T09:57:14;20.00;77.00
23713;DHT22;12035;49.978;8.298;2022-10-16T10:02:28;20.00;76.60
23713;DHT22;12035;49.978;8.298;2022-10-16T10:07:39;20.10;76.40
23713;DHT22;12035;49.978;8.298;2022-10-16T10:12:46;20.10;76.80
23713;DHT22;12035;49.978;8.298;2022-10-16T10:17:58;20.20;76.70
23713;DHT22;12035;49.978;8.298;2022-10-16T10:22:58;20.30;76.20
23713;DHT22;12035;49.978;8.298;2022-10-16T10:28:23;20.30;76.00
23713;DHT22;12035;49.978;8.298;2022-10-16T10:33:50;20.40;76.00
23713;DHT22;12035;49.978;8.298;2022-10-16T10:38:56;20.30;76.10
23713;DHT22;12035;49.978;8.298;2022-10-16T10:44:03;20.40;76.30
23713;DHT22;12035;49.978;8.298;2022-10-16T10:49:19;20.50;76.50
23713;DHT22;12035;49.978;8.298;2022-10-16T10:54:28;20.50;76.50
23713;DHT22;12035;49.978;8.298;2022-10-16T11:05:19;20.70;76.00
23713;DHT22;12035;49.978;8.298;2022-10-16T11:10:24;20.90;75.60
23713;DHT22;12035;49.978;8.298;2022-10-16T11:15:28;20.90;75.60
23713;DHT22;12035;49.978;8.298;2022-10-16T11:20:32;21.00;75.00
23713;DHT22;12035;49.978;8.298;2022-10-16T11:25:32;21.10;75.00
23713;DHT22;12035;49.978;8.298;2022-10-16T11:30:39;21.10;75.00
23713;DHT22;12035;49.978;8.298;2022-10-16T11:35:42;21.10;75.10
23713;DHT22;12035;49.978;8.298;2022-10-16T11:40:43;21.20;75.50
23713;DHT22;12035;49.978;8.298;2022-10-16T11:45:49;21.20;75.50
23713;DHT22;12035;49.978;8.298;2022-10-16T11:50:51;21.20;75.60
23713;DHT22;12035;49.978;8.298;2022-10-16T11:55:50;21.30;75.70
23713;DHT22;12035;49.978;8.298;2022-10-16T12:00:58;21.40;75.70
23713;DHT22;12035;49.978;8.298;2022-10-16T12:06:10;21.50;75.40
23713;DHT22;12035;49.978;8.298;2022-10-16T12:11:35;21.60;75.30
23713;DHT22;12035;49.978;8.298;2022-10-16T12:16:37;21.80;75.00
23713;DHT22;12035;49.978;8.298;2022-10-16T12:21:35;21.90;74.80
23713;DHT22;12035;49.978;8.298;2022-10-16T12:26:34;22.00;74.80
23713;DHT22;12035;49.978;8.298;2022-10-16T12:31:43;22.10;74.10
23713;DHT22;12035;49.978;8.298;2022-10-16T12:36:41;22.20;73.20
23713;DHT22;12035;49.978;8.298;2022-10-16T12:41:40;22.30;73.50
23713;DHT22;12035;49.978;8.298;2022-10-16T12:46:40;22.40;73.20
23713;DHT22;12035;49.978;8.298;2022-10-16T12:51:38;22.50;73.00
23713;DHT22;12035;49.978;8.298;2022-10-16T12:56:46;22.60;72.30
23713;DHT22;12035;49.978;8.298;2022-10-16T13:02:16;22.60;71.70
23713;DHT22;12035;49.978;8.298;2022-10-16T13:07:51;22.60;71.70
23713;DHT22;12035;49.978;8.298;2022-10-16T13:18:24;22.70;71.50
23713;DHT22;12035;49.978;8.298;2022-10-16T13:23:33;22.70;72.20
23713;DHT22;12035;49.978;8.298;2022-10-16T13:28:39;22.70;70.90
23713;DHT22;12035;49.978;8.298;2022-10-16T13:33:40;22.60;70.90
23713;DHT22;12035;49.978;8.298;2022-10-16T13:38:39;22.60;70.70
23713;DHT22;12035;49.978;8.298;2022-10-16T13:43:39;22.60;71.20
23713;DHT22;12035;49.978;8.298;2022-10-16T13:48:43;22.60;70.90
23713;DHT22;12035;49.978;8.298;2022-10-16T13:53:42;22.60;70.80
23713;DHT22;12035;49.978;8.298;2022-10-16T13:58:40;22.60;70.90
23713;DHT22;12035;49.978;8.298;2022-10-16T14:03:38;22.60;70.90
23713;DHT22;12035;49.978;8.298;2022-10-16T14:08:41;22.50;71.60
23713;DHT22;12035;49.978;8.298;2022-10-16T14:13:44;22.50;70.80
23713;DHT22;12035;49.978;8.298;2022-10-16T14:18:45;22.50;70.90
23713;DHT22;12035;49.978;8.298;2022-10-16T14:23:45;22.50;71.10
23713;DHT22;12035;49.978;8.298;2022-10-16T14:28:47;22.50;71.10
23713;DHT22;12035;49.978;8.298;2022-10-16T14:33:45;22.50;71.20
23713;DHT22;12035;49.978;8.298;2022-10-16T14:38:51;22.50;71.40
23713;DHT22;12035;49.978;8.298;2022-10-16T14:43:55;22.50;71.40
23713;DHT22;12035;49.978;8.298;2022-10-16T14:49:15;22.50;71.50
23713;DHT22;12035;49.978;8.298;2022-10-16T14:54:31;22.50;71.40
23713;DHT22;12035;49.978;8.298;2022-10-16T15:00:12;22.50;71.50
23713;DHT22;12035;49.978;8.298;2022-10-16T15:05:16;22.60;71.80
23713;DHT22;12035;49.978;8.298;2022-10-16T15:10:18;22.60;71.70
23713;DHT22;12035;49.978;8.298;2022-10-16T15:15:35;22.60;72.20
23713;DHT22;12035;49.978;8.298;2022-10-16T15:20:36;22.60;71.30
23713;DHT22;12035;49.978;8.298;2022-10-16T15:25:39;22.60;71.50
23713;DHT22;12035;49.978;8.298;2022-10-16T15:30:42;22.60;71.50
23713;DHT22;12035;49.978;8.298;2022-10-16T15:35:42;22.60;71.50
23713;DHT22;12035;49.978;8.298;2022-10-16T15:41:00;22.60;71.50
23713;DHT22;12035;49.978;8.298;2022-10-16T15:45:59;22.60;71.50
23713;DHT22;12035;49.978;8.298;2022-10-16T15:50:59;22.60;71.70
23713;DHT22;12035;49.978;8.298;2022-10-16T16:01:33;22.50;71.80
23713;DHT22;12035;49.978;8.298;2022-10-16T16:06:30;22.40;71.80
23713;DHT22;12035;49.978;8.298;2022-10-16T16:11:31;22.40;72.10
23713;DHT22;12035;49.978;8.298;2022-10-16T16:16:33;22.40;72.20
23713;DHT22;12035;49.978;8.298;2022-10-16T16:21:34;22.30;72.20
23713;DHT22;12035;49.978;8.298;2022-10-16T16:26:35;22.30;72.20
23713;DHT22;12035;49.978;8.298;2022-10-16T16:31:35;22.30;72.30
23713;DHT22;12035;49.978;8.298;2022-10-16T16:36:34;22.20;72.20
23713;DHT22;12035;49.978;8.298;2022-10-16T16:41:31;22.20;72.40
23713;DHT22;12035;49.978;8.298;2022-10-16T16:46:31;22.10;72.40
23713;DHT22;12035;49.978;8.298;2022-10-16T16:51:30;22.10;72.60
23713;DHT22;12035;49.978;8.298;2022-10-16T16:56:27;22.00;72.60
23713;DHT22;12035;49.978;8.298;2022-10-16T17:01:27;22.00;72.70
23713;DHT22;12035;49.978;8.298;2022-10-16T17:06:28;22.00;72.90
23713;DHT22;12035;49.978;8.298;2022-10-16T17:11:30;21.90;72.90
23713;DHT22;12035;49.978;8.298;2022-10-16T17:16:32;21.90;73.00
23713;DHT22;12035;49.978;8.298;2022-10-16T17:21:33;21.80;73.00
23713;DHT22;12035;49.978;8.298;2022-10-16T17:26:34;21.90;73.30
23713;DHT22;12035;49.978;8.298;2022-10-16T17:31:37;21.80;73.20
23713;DHT22;12035;49.978;8.298;2022-10-16T17:36:40;21.80;73.20
23713;DHT22;12035;49.978;8.298;2022-10-16T17:41:41;21.70;73.30
23713;DHT22;12035;49.978;8.298;2022-10-16T17:46:39;21.60;73.30
23713;DHT22;12035;49.978;8.298;2022-10-16T17:51:49;21.60;73.40
23713;DHT22;12035;49.978;8.298;2022-10-16T17:56:47;21.50;73.80
23713;DHT22;12035;49.978;8.298;2022-10-16T18:01:44;21.40;73.70
23713;DHT22;12035;49.978;8.298;2022-10-16T18:06:45;21.30;73.90
23713;DHT22;12035;49.978;8.298;2022-10-16T18:11:43;21.20;74.10
23713;DHT22;12035;49.978;8.298;2022-10-16T18:16:41;21.20;74.10
23713;DHT22;12035;49.978;8.298;2022-10-16T18:21:38;21.20;74.10
23713;DHT22;12035;49.978;8.298;2022-10-16T18:26:37;21.20;74.10
23713;DHT22;12035;49.978;8.298;2022-10-16T18:31:38;21.10;73.90
23713;DHT22;12035;49.978;8.298;2022-10-16T18:36:35;21.10;73.80
23713;DHT22;12035;49.978;8.298;2022-10-16T18:41:34;21.00;74.40
23713;DHT22;12035;49.978;8.298;2022-10-16T18:46:43;21.00;73.70
23713;DHT22;12035;49.978;8.298;2022-10-16T18:51:41;20.90;73.60
23713;DHT22;12035;49.978;8.298;2022-10-16T18:56:41;20.90;73.40
23713;DHT22;12035;49.978;8.298;2022-10-16T19:01:39;20.90;73.30
23713;DHT22;12035;49.978;8.298;2022-10-16T19:06:39;20.80;73.40
23713;DHT22;12035;49.978;8.298;2022-10-16T19:11:38;20.80;73.50
23713;DHT22;12035;49.978;8.298;2022-10-16T19:16:37;20.70;73.90
23713;DHT22;12035;49.978;8.298;2022-10-16T19:21:37;20.70;74.20
23713;DHT22;12035;49.978;8.298;2022-10-16T19:26:35;20.60;74.20
23713;DHT22;12035;49.978;8.298;2022-10-16T19:31:33;20.60;74.10
23713;DHT22;12035;49.978;8.298;2022-10-16T19:36:43;20.60;73.90
23713;DHT22;12035;49.978;8.298;2022-10-16T19:41:46;20.50;73.90
23713;DHT22;12035;49.978;8.298;2022-10-16T19:46:44;20.50;73.70
23713;DHT22;12035;49.978;8.298;2022-10-16T19:51:45;20.40;73.60
23713;DHT22;12035;49.978;8.298;2022-10-16T19:56:44;20.40;74.00
23713;DHT22;12035;49.978;8.298;2022-10-16T20:01:41;20.30;73.90
23713;DHT22;12035;49.978;8.298;2022-10-16T20:06:39;20.30;73.90
23713;DHT22;12035;49.978;8.298;2022-10-16T20:11:37;20.30;73.90
23713;DHT22;12035;49.978;8.298;2022-10-16T20:16:34;20.30;74.50
23713;DHT22;12035;49.978;8.298;2022-10-16T20:21:33;20.20;73.70
23713;DHT22;12035;49.978;8.298;2022-10-16T20:26:49;20.20;73.70
23713;DHT22;12035;49.978;8.298;2022-10-16T20:31:52;20.10;73.70
23713;DHT22;12035;49.978;8.298;2022-10-16T20:36:54;20.10;73.60
23713;DHT22;12035;49.978;8.298;2022-10-16T20:41:59;20.10;73.90
23713;DHT22;12035;49.978;8.298;2022-10-16T20:46:56;20.00;73.80
23713;DHT22;12035;49.978;8.298;2022-10-16T20:51:54;20.00;73.70
23713;DHT22;12035;49.978;8.298;2022-10-16T20:56:52;19.90;73.80
23713;DHT22;12035;49.978;8.298;2022-10-16T21:01:50;19.90;74.10
23713;DHT22;12035;49.978;8.298;2022-10-16T21:06:48;19.90;74.30
23713;DHT22;12035;49.978;8.298;2022-10-16T21:11:45;19.90;74.50
23713;DHT22;12035;49.978;8.298;2022-10-16T21:16:42;19.80;74.30
23713;DHT22;12035;49.978;8.298;2022-10-16T21:21:41;19.80;74.10
23713;DHT22;12035;49.978;8.298;2022-10-16T21:26:38;19.80;74.10
23713;DHT22;12035;49.978;8.298;2022-10-16T21:31:38;19.80;73.90
23713;DHT22;12035;49.978;8.298;2022-10-16T21:36:41;19.70;73.90
23713;DHT22;12035;49.978;8.298;2022-10-16T21:41:40;19.60;73.90
23713;DHT22;12035;49.978;8.298;2022-10-16T21:46:40;19.60;73.90
23713;DHT22;12035;49.978;8.298;2022-10-16T21:51:42;19.50;74.10
23713;DHT22;12035;49.978;8.298;2022-10-16T21:56:40;19.50;74.30
23713;DHT22;12035;49.978;8.298;2022-10-16T22:01:37;19.50;74.30
23713;DHT22;12035;49.978;8.298;2022-10-16T22:06:35;19.50;74.20
23713;DHT22;12035;49.978;8.298;2022-10-16T22:11:36;19.40;74.20
23713;DHT22;12035;49.978;8.298;2022-10-16T22:16:34;19.40;74.70
23713;DHT22;12035;49.978;8.298;2022-10-16T22:21:32;19.40;75.10
23713;DHT22;12035;49.978;8.298;2022-10-16T22:26:30;19.30;75.40
23713;DHT22;12035;49.978;8.298;2022-10-16T22:31:28;19.30;75.60
23713;DHT22;12035;49.978;8.298;2022-10-16T22:36:27;19.30;75.80
23713;DHT22;12035;49.978;8.298;2022-10-16T22:41:25;19.20;76.10
23713;DHT22;12035;49.978;8.298;2022-10-16T22:46:24;19.20;76.10
23713;DHT22;12035;49.978;8.298;2022-10-16T22:51:24;19.20;76.10
23713;DHT22;12035;49.978;8.298;2022-10-16T22:56:22;19.20;76.00
23713;DHT22;12035;49.978;8.298;2022-10-16T23:01:21;19.20;75.70
23713;DHT22;12035;49.978;8.298;2022-10-16T23:06:22;19.20;75.40
23713;DHT22;12035;49.978;8.298;2022-10-16T23:11:20;19.10;75.00
23713;DHT22;12035;49.978;8.298;2022-10-16T23:16:19;19.10;75.00
23713;DHT22;12035;49.978;8.298;2022-10-16T23:21:19;19.10;74.80
23713;DHT22;12035;49.978;8.298;2022-10-16T23:26:21;19.00;74.70
23713;DHT22;12035;49.978;8.298;2022-10-16T23:31:20;19.00;74.70
23713;DHT22;12035;49.978;8.298;2022-10-16T23:36:19;19.00;74.60
23713;DHT22;12035;49.978;8.298;2022-10-16T23:41:18;19.00;74.50
23713;DHT22;12035;49.978;8.298;2022-10-16T23:46:16;18.90;74.30
23713;DHT22;12035;49.978;8.298;2022-10-16T23:51:14;18.90;74.20
23713;DHT22;12035;49.978;8.298;2022-10-16T23:56:11;18.80;74.00
